createdAt,value
2019-05-18T00:00:13.858Z,0.00
2019-05-18T00:01:13.859Z,0.00
2019-05-18T00:02:13.890Z,0.00
2019-05-18T00:03:13.850Z,0.00
2019-05-18T00:04:13.845Z,0.00
2019-05-18T00:05:13.842Z,0.00
2019-05-18T00:06:13.836Z,0.00
2019-05-18T00:07:13.837Z,0.00
2019-05-18T00:08:13.831Z,0.00
2019-05-18T00:09:13.827Z,0.19
2019-05-18T00:10:13.842Z,0.19
2019-05-18T00:11:13.821Z,1.24
2019-05-18T00:12:13.817Z,1.81
2019-05-18T00:13:13.836Z,1.81
2019-05-18T00:14:13.808Z,2.29
2019-05-18T00:15:13.809Z,3.05
2019-05-18T00:16:13.803Z,2.57
2019-05-18T00:17:25.089Z,1.33
2019-05-18T00:18:13.800Z,0.95
2019-05-18T00:19:13.792Z,0.67
2019-05-18T00:20:13.789Z,0.28
2019-05-18T00:21:13.785Z,0.00
2019-05-18T00:22:13.781Z,0.00
2019-05-18T00:23:13.778Z,0.00
2019-05-18T00:24:13.774Z,0.00
2019-05-18T00:25:13.785Z,0.00
2019-05-18T00:26:13.766Z,0.00
2019-05-18T00:27:13.762Z,0.00
2019-05-18T00:28:13.761Z,0.00
2019-05-18T00:29:13.755Z,0.00
2019-05-18T00:30:13.760Z,0.00
2019-05-18T00:31:13.748Z,0.00
2019-05-18T00:32:13.765Z,0.00
2019-05-18T00:33:13.743Z,0.00
2019-05-18T00:34:13.738Z,0.00
2019-05-18T00:35:16.527Z,0.00
2019-05-18T00:36:13.730Z,0.00
2019-05-18T00:37:13.729Z,0.00
2019-05-18T00:38:13.723Z,0.00
2019-05-18T00:39:13.732Z,0.00
2019-05-18T00:40:13.719Z,0.00
2019-05-18T00:41:13.716Z,0.00
2019-05-18T00:42:13.707Z,0.00
2019-05-18T00:43:13.704Z,0.00
2019-05-18T00:44:13.701Z,0.00
2019-05-18T00:45:13.698Z,0.00
2019-05-18T00:46:13.701Z,0.00
2019-05-18T00:47:13.690Z,0.00
2019-05-18T00:48:13.685Z,0.00
2019-05-18T00:49:13.683Z,0.00
2019-05-18T00:50:13.690Z,0.00
2019-05-18T00:51:13.675Z,0.00
2019-05-18T00:52:13.672Z,0.00
2019-05-18T00:53:13.667Z,0.00
2019-05-18T00:54:13.665Z,0.00
2019-05-18T00:55:13.661Z,0.00
2019-05-18T00:56:13.656Z,0.00
2019-05-18T00:57:13.651Z,0.00
2019-05-18T00:58:13.647Z,0.00
2019-05-18T00:59:16.076Z,0.00
2019-05-18T01:00:13.639Z,0.00
2019-05-18T01:01:13.638Z,0.00
2019-05-18T01:02:13.632Z,0.00
2019-05-18T01:03:13.629Z,0.00
2019-05-18T01:04:13.625Z,0.00
2019-05-18T01:05:13.636Z,0.00
2019-05-18T01:06:13.625Z,0.00
2019-05-18T01:07:13.611Z,0.00
2019-05-18T01:08:13.611Z,0.00
2019-05-18T01:09:13.610Z,0.00
2019-05-18T01:10:13.605Z,0.00
2019-05-18T01:11:13.596Z,0.00
2019-05-18T01:12:13.593Z,0.00
2019-05-18T01:13:13.591Z,0.00
2019-05-18T01:14:13.585Z,0.00
2019-05-18T01:15:13.581Z,0.00
2019-05-18T01:16:13.579Z,0.00
2019-05-18T01:17:13.575Z,0.00
2019-05-18T01:18:13.569Z,0.00
2019-05-18T01:19:13.567Z,0.00
2019-05-18T01:20:13.562Z,0.00
2019-05-18T01:21:13.559Z,0.00
2019-05-18T01:22:13.558Z,0.00
2019-05-18T01:23:13.551Z,0.00
2019-05-18T01:24:13.546Z,0.00
2019-05-18T01:25:13.542Z,0.00
2019-05-18T01:26:13.538Z,0.00
2019-05-18T01:27:13.533Z,0.00
2019-05-18T01:28:13.530Z,0.00
2019-05-18T01:29:13.526Z,0.00
2019-05-18T01:30:13.522Z,0.00
2019-05-18T01:31:13.520Z,0.00
2019-05-18T01:32:13.515Z,0.00
2019-05-18T01:33:13.510Z,0.00
2019-05-18T01:34:13.506Z,0.00
2019-05-18T01:35:13.502Z,0.00
2019-05-18T01:36:13.497Z,0.00
2019-05-18T01:37:13.497Z,0.00
2019-05-18T01:38:13.490Z,0.00
2019-05-18T01:39:13.489Z,0.00
2019-05-18T01:40:13.482Z,0.00
2019-05-18T01:41:13.477Z,0.00
2019-05-18T01:42:13.476Z,0.00
2019-05-18T01:43:13.469Z,0.00
2019-05-18T01:44:13.465Z,0.00
2019-05-18T01:45:17.167Z,0.00
2019-05-18T01:46:13.455Z,0.00
2019-05-18T01:47:13.457Z,0.00
2019-05-18T01:48:14.655Z,0.00
2019-05-18T01:49:13.446Z,0.00
2019-05-18T01:50:13.441Z,0.00
2019-05-18T01:51:13.438Z,0.00
2019-05-18T01:52:13.431Z,0.00
2019-05-18T01:53:13.428Z,0.00
2019-05-18T01:54:13.430Z,0.00
2019-05-18T01:55:13.419Z,0.00
2019-05-18T01:56:13.415Z,0.00
2019-05-18T01:57:13.411Z,0.00
2019-05-18T01:58:13.405Z,0.00
2019-05-18T01:59:13.402Z,0.00
2019-05-18T02:00:13.397Z,0.00
2019-05-18T02:01:13.394Z,0.00
2019-05-18T02:02:13.391Z,0.00
2019-05-18T02:03:13.384Z,0.00
2019-05-18T02:04:13.383Z,0.00
2019-05-18T02:05:13.377Z,0.00
2019-05-18T02:06:13.472Z,0.00
2019-05-18T02:07:13.367Z,0.00
2019-05-18T02:08:13.369Z,0.00
2019-05-18T02:09:13.360Z,0.00
2019-05-18T02:10:13.355Z,0.00
2019-05-18T02:11:13.350Z,0.00
2019-05-18T02:12:13.346Z,0.00
2019-05-18T02:13:13.341Z,0.00
2019-05-18T02:14:13.336Z,0.00
2019-05-18T02:15:13.334Z,0.00
2019-05-18T02:16:13.330Z,0.00
2019-05-18T02:17:13.329Z,0.00
2019-05-18T02:18:26.878Z,0.00
2019-05-18T02:19:13.320Z,0.00
2019-05-18T02:20:13.311Z,0.00
2019-05-18T02:21:13.316Z,0.00
2019-05-18T02:22:13.305Z,0.00
2019-05-18T02:23:13.306Z,0.00
2019-05-18T02:24:13.307Z,0.00
2019-05-18T02:25:13.291Z,0.00
2019-05-18T02:26:13.286Z,0.00
2019-05-18T02:27:13.281Z,0.00
2019-05-18T02:28:13.278Z,0.00
2019-05-18T02:29:13.273Z,0.00
2019-05-18T02:30:17.340Z,0.00
2019-05-18T02:31:13.265Z,0.00
2019-05-18T02:32:13.261Z,0.00
2019-05-18T02:33:13.261Z,0.00
2019-05-18T02:34:13.256Z,0.00
2019-05-18T02:35:13.248Z,0.00
2019-05-18T02:36:13.246Z,0.00
2019-05-18T02:37:13.239Z,0.00
2019-05-18T02:38:13.237Z,0.00
2019-05-18T02:39:13.231Z,0.00
2019-05-18T02:40:13.227Z,0.00
2019-05-18T02:41:13.223Z,0.00
2019-05-18T02:42:13.217Z,0.00
2019-05-18T02:43:13.213Z,0.00
2019-05-18T02:44:13.211Z,0.00
2019-05-18T02:45:13.204Z,0.00
2019-05-18T02:46:13.204Z,0.00
2019-05-18T02:47:13.197Z,0.00
2019-05-18T02:48:13.193Z,0.00
2019-05-18T02:49:13.188Z,0.00
2019-05-18T02:50:13.185Z,0.00
2019-05-18T02:51:13.179Z,0.00
2019-05-18T02:52:13.175Z,0.00
2019-05-18T02:53:13.168Z,0.00
2019-05-18T02:54:13.164Z,0.00
2019-05-18T02:55:13.160Z,0.00
2019-05-18T02:56:13.155Z,0.00
2019-05-18T02:57:13.153Z,0.00
2019-05-18T02:58:13.148Z,0.00
2019-05-18T02:59:13.145Z,0.00
2019-05-18T03:00:13.148Z,0.00
2019-05-18T03:01:13.133Z,0.00
2019-05-18T03:02:13.174Z,0.00
2019-05-18T03:03:13.142Z,0.00
2019-05-18T03:04:13.121Z,0.00
2019-05-18T03:05:13.120Z,0.00
2019-05-18T03:06:13.111Z,0.00
2019-05-18T03:07:13.106Z,0.00
2019-05-18T03:08:13.122Z,0.00
2019-05-18T03:09:13.100Z,0.00
2019-05-18T03:10:13.093Z,0.00
2019-05-18T03:11:13.090Z,0.00
2019-05-18T03:12:13.085Z,0.00
2019-05-18T03:13:13.080Z,0.00
2019-05-18T03:14:13.076Z,0.00
2019-05-18T03:15:13.073Z,0.00
2019-05-18T03:16:13.065Z,0.00
2019-05-18T03:17:13.065Z,0.00
2019-05-18T03:18:13.065Z,0.00
2019-05-18T03:19:13.052Z,0.00
2019-05-18T03:20:13.049Z,0.00
2019-05-18T03:21:13.043Z,0.00
2019-05-18T03:22:13.040Z,0.00
2019-05-18T03:23:13.038Z,0.00
2019-05-18T03:24:13.034Z,0.00
2019-05-18T03:25:13.034Z,0.00
2019-05-18T03:26:13.029Z,0.00
2019-05-18T03:27:13.022Z,0.00
2019-05-18T03:28:13.011Z,0.00
2019-05-18T03:29:13.008Z,0.00
2019-05-18T03:30:13.008Z,0.00
2019-05-18T03:31:13.022Z,0.00
2019-05-18T03:32:12.994Z,0.00
2019-05-18T03:33:12.990Z,0.00
2019-05-18T03:34:12.989Z,0.00
2019-05-18T03:35:12.980Z,0.00
2019-05-18T03:36:12.976Z,0.00
2019-05-18T03:37:12.970Z,0.00
2019-05-18T03:38:12.966Z,0.00
2019-05-18T03:39:12.963Z,0.00
2019-05-18T03:40:12.956Z,0.00
2019-05-18T03:41:12.952Z,0.00
2019-05-18T03:42:12.946Z,0.00
2019-05-18T03:43:12.978Z,0.00
2019-05-18T03:44:12.937Z,0.00
2019-05-18T03:45:12.934Z,0.00
2019-05-18T03:46:12.928Z,0.00
2019-05-18T03:47:12.924Z,0.00
2019-05-18T03:48:12.919Z,0.00
2019-05-18T03:49:26.476Z,0.00
2019-05-18T03:50:12.910Z,0.00
2019-05-18T03:51:12.909Z,0.00
2019-05-18T03:52:12.905Z,0.00
2019-05-18T03:53:12.901Z,0.00
2019-05-18T03:54:12.890Z,0.00
2019-05-18T03:55:12.893Z,0.00
2019-05-18T03:56:12.885Z,0.00
2019-05-18T03:57:12.880Z,0.00
2019-05-18T03:58:12.871Z,0.00
2019-05-18T03:59:12.867Z,0.00
2019-05-18T04:00:12.864Z,0.00
2019-05-18T04:01:12.859Z,0.00
2019-05-18T04:02:12.852Z,0.00
2019-05-18T04:03:12.849Z,0.00
2019-05-18T04:04:12.845Z,0.00
2019-05-18T04:05:12.839Z,0.00
2019-05-18T04:06:12.840Z,0.00
2019-05-18T04:07:12.829Z,0.00
2019-05-18T04:08:12.826Z,0.00
2019-05-18T04:09:12.822Z,0.00
2019-05-18T04:10:12.818Z,0.00
2019-05-18T04:11:12.822Z,0.00
2019-05-18T04:12:12.816Z,0.00
2019-05-18T04:13:12.803Z,0.00
2019-05-18T04:14:12.797Z,0.00
2019-05-18T04:15:12.813Z,0.00
2019-05-18T04:16:12.791Z,0.00
2019-05-18T04:17:12.782Z,0.00
2019-05-18T04:18:12.778Z,0.00
2019-05-18T04:19:12.775Z,0.00
2019-05-18T04:20:12.768Z,0.00
2019-05-18T04:21:12.765Z,0.00
2019-05-18T04:22:12.759Z,0.00
2019-05-18T04:23:12.756Z,0.00
2019-05-18T04:24:12.749Z,0.00
2019-05-18T04:25:12.746Z,0.00
2019-05-18T04:26:12.742Z,0.00
2019-05-18T04:27:12.740Z,0.00
2019-05-18T04:28:12.733Z,0.00
2019-05-18T04:29:12.732Z,0.00
2019-05-18T04:30:12.726Z,0.00
2019-05-18T04:31:12.719Z,0.00
2019-05-18T04:32:12.718Z,0.00
2019-05-18T04:33:12.727Z,0.00
2019-05-18T04:34:12.703Z,0.00
2019-05-18T04:35:12.699Z,0.00
2019-05-18T04:36:12.712Z,0.00
2019-05-18T04:37:12.691Z,0.00
2019-05-18T04:38:12.691Z,0.00
2019-05-18T04:39:12.683Z,0.00
2019-05-18T04:40:12.678Z,0.00
2019-05-18T04:41:12.680Z,0.00
2019-05-18T04:42:12.672Z,0.00
2019-05-18T04:43:12.670Z,0.00
2019-05-18T04:44:12.660Z,0.00
2019-05-18T04:45:12.658Z,0.00
2019-05-18T04:46:12.656Z,0.00
2019-05-18T04:47:12.651Z,0.00
2019-05-18T04:48:12.666Z,0.00
2019-05-18T04:49:12.636Z,0.00
2019-05-18T04:50:12.639Z,0.00
2019-05-18T04:51:12.633Z,0.00
2019-05-18T04:52:12.625Z,0.00
2019-05-18T04:53:12.621Z,0.00
2019-05-18T04:54:12.618Z,0.00
2019-05-18T04:55:12.609Z,0.00
2019-05-18T04:56:12.606Z,0.00
2019-05-18T04:57:12.605Z,0.00
2019-05-18T04:58:12.598Z,0.00
2019-05-18T04:59:12.592Z,0.00
2019-05-18T05:00:12.590Z,0.00
2019-05-18T05:01:12.586Z,0.00
2019-05-18T05:02:12.582Z,0.00
2019-05-18T05:03:12.579Z,0.00
2019-05-18T05:04:12.578Z,0.00
2019-05-18T05:05:12.568Z,0.00
2019-05-18T05:06:12.563Z,0.00
2019-05-18T05:07:12.564Z,0.00
2019-05-18T05:08:12.554Z,0.00
2019-05-18T05:09:12.550Z,0.00
2019-05-18T05:10:12.548Z,0.00
2019-05-18T05:11:12.541Z,0.00
2019-05-18T05:12:12.538Z,0.00
2019-05-18T05:13:12.537Z,0.00
2019-05-18T05:14:12.530Z,0.00
2019-05-18T05:15:12.524Z,0.00
2019-05-18T05:16:12.521Z,0.00
2019-05-18T05:17:12.538Z,0.00
2019-05-18T05:18:12.512Z,0.00
2019-05-18T05:19:12.510Z,0.00
2019-05-18T05:20:19.890Z,0.00
2019-05-18T05:21:12.504Z,0.00
2019-05-18T05:22:12.498Z,0.00
2019-05-18T05:23:12.498Z,0.00
2019-05-18T05:24:12.489Z,0.00
2019-05-18T05:25:12.489Z,0.00
2019-05-18T05:26:12.483Z,0.00
2019-05-18T05:27:12.478Z,0.00
2019-05-18T05:28:12.476Z,0.00
2019-05-18T05:29:12.473Z,0.00
2019-05-18T05:30:12.470Z,0.00
2019-05-18T05:31:12.463Z,0.00
2019-05-18T05:32:12.465Z,0.00
2019-05-18T05:33:12.461Z,0.00
2019-05-18T05:34:12.452Z,0.00
2019-05-18T05:35:12.466Z,0.00
2019-05-18T05:36:12.446Z,0.00
2019-05-18T05:37:12.448Z,0.00
2019-05-18T05:38:12.438Z,0.00
2019-05-18T05:39:12.438Z,0.00
2019-05-18T05:40:12.432Z,0.00
2019-05-18T05:41:16.507Z,0.00
2019-05-18T05:42:12.425Z,0.00
2019-05-18T05:43:12.423Z,0.00
2019-05-18T05:44:12.421Z,0.00
2019-05-18T05:45:12.418Z,0.00
2019-05-18T05:46:12.417Z,0.00
2019-05-18T05:47:12.412Z,0.00
2019-05-18T05:48:12.405Z,0.00
2019-05-18T05:49:12.402Z,0.00
2019-05-18T05:50:12.428Z,0.00
2019-05-18T05:51:12.400Z,0.00
2019-05-18T05:52:12.392Z,0.00
2019-05-18T05:53:12.390Z,0.00
2019-05-18T05:54:12.386Z,0.00
2019-05-18T05:55:12.383Z,0.00
2019-05-18T05:56:12.380Z,0.00
2019-05-18T05:57:12.383Z,0.00
2019-05-18T05:58:12.372Z,0.00
2019-05-18T05:59:12.370Z,0.00
2019-05-18T06:00:12.367Z,0.00
2019-05-18T06:01:12.365Z,1.05
2019-05-18T06:02:12.362Z,2.00
2019-05-18T06:03:12.359Z,4.20
2019-05-18T06:04:12.356Z,7.26
2019-05-18T06:05:12.352Z,11.17
2019-05-18T06:06:12.350Z,15.37
2019-05-18T06:07:12.348Z,17.29
2019-05-18T06:08:12.346Z,18.15
2019-05-18T06:09:12.343Z,19.20
2019-05-18T06:10:12.337Z,18.81
2019-05-18T06:11:12.336Z,17.38
2019-05-18T06:12:12.333Z,17.86
2019-05-18T06:13:12.332Z,18.91
2019-05-18T06:14:12.340Z,18.15
2019-05-18T06:15:12.324Z,18.63
2019-05-18T06:16:12.325Z,19.78
2019-05-18T06:17:12.320Z,19.78
2019-05-18T06:18:12.316Z,19.78
2019-05-18T06:19:12.315Z,20.64
2019-05-18T06:20:12.312Z,24.65
2019-05-18T06:21:12.310Z,24.94
2019-05-18T06:22:12.306Z,26.28
2019-05-18T06:23:12.306Z,26.66
2019-05-18T06:24:12.302Z,27.53
2019-05-18T06:25:12.407Z,28.09
2019-05-18T06:26:12.308Z,27.62
2019-05-18T06:27:12.293Z,27.82
2019-05-18T06:28:12.342Z,27.62
2019-05-18T06:29:12.291Z,27.62
2019-05-18T06:30:12.300Z,28.30
2019-05-18T06:31:12.286Z,28.39
2019-05-18T06:32:12.282Z,31.84
2019-05-18T06:33:12.280Z,33.07
2019-05-18T06:34:12.278Z,32.60
2019-05-18T06:35:12.275Z,32.98
2019-05-18T06:36:12.273Z,31.56
2019-05-18T06:37:12.271Z,33.38
2019-05-18T06:38:12.268Z,32.14
2019-05-18T06:39:12.265Z,31.09
2019-05-18T06:40:12.263Z,33.95
2019-05-18T06:41:12.267Z,33.48
2019-05-18T06:42:12.260Z,33.95
2019-05-18T06:43:12.257Z,36.15
2019-05-18T06:44:12.255Z,38.35
2019-05-18T06:45:12.254Z,40.17
2019-05-18T06:46:12.251Z,39.14
2019-05-18T06:47:12.250Z,40.58
2019-05-18T06:48:12.248Z,39.33
2019-05-18T06:49:12.263Z,37.32
2019-05-18T06:50:13.223Z,38.85
2019-05-18T06:51:12.242Z,39.43
2019-05-18T06:52:12.240Z,38.76
2019-05-18T06:53:12.237Z,38.76
2019-05-18T06:54:12.250Z,37.04
2019-05-18T06:55:12.235Z,37.23
2019-05-18T06:56:12.235Z,38.95
2019-05-18T06:57:12.231Z,40.78
2019-05-18T06:58:12.227Z,38.30
2019-05-18T06:59:12.227Z,40.41
2019-05-18T07:00:12.226Z,38.10
2019-05-18T07:01:12.223Z,40.59
2019-05-18T07:02:12.223Z,41.94
2019-05-18T07:03:12.221Z,41.84
2019-05-18T07:04:12.231Z,46.72
2019-05-18T07:05:12.217Z,46.53
2019-05-18T07:06:12.216Z,47.68
2019-05-18T07:07:12.215Z,46.53
2019-05-18T07:08:12.212Z,42.51
2019-05-18T07:09:13.984Z,42.99
2019-05-18T07:10:12.212Z,46.15
2019-05-18T07:11:12.209Z,46.65
2019-05-18T07:12:12.212Z,45.59
2019-05-18T07:13:12.207Z,45.69
2019-05-18T07:14:24.888Z,47.71
2019-05-18T07:15:12.203Z,51.25
2019-05-18T07:16:12.203Z,50.67
2019-05-18T07:17:12.202Z,48.28
2019-05-18T07:18:12.200Z,48.18
2019-05-18T07:19:12.204Z,48.69
2019-05-18T07:20:12.209Z,50.22
2019-05-18T07:21:21.880Z,52.52
2019-05-18T07:22:12.196Z,56.83
2019-05-18T07:23:12.200Z,60.28
2019-05-18T07:24:12.194Z,58.46
2019-05-18T07:25:12.193Z,60.86
2019-05-18T07:26:12.192Z,56.96
2019-05-18T07:27:12.193Z,60.41
2019-05-18T07:28:12.193Z,60.99
2019-05-18T07:29:12.189Z,64.47
2019-05-18T07:30:12.189Z,62.74
2019-05-18T07:37:10.390Z,67.86
2019-05-18T07:45:58.517Z,73.21
2019-05-18T07:46:58.514Z,74.65
2019-05-18T07:47:58.516Z,74.94
2019-05-18T07:48:58.519Z,76.48
2019-05-18T07:49:58.515Z,77.29
2019-05-18T07:50:58.516Z,81.46
2019-05-18T07:51:58.517Z,82.41
2019-05-18T07:52:58.518Z,84.52
2019-05-18T07:53:58.520Z,84.99
2019-05-18T07:54:58.523Z,84.79
2019-05-18T07:55:58.523Z,82.93
2019-05-18T07:56:58.525Z,83.18
2019-05-18T07:57:58.528Z,83.08
2019-05-18T07:58:58.530Z,84.97
2019-05-18T07:59:58.534Z,84.58
2019-05-18T08:00:58.538Z,86.07
2019-05-18T08:01:58.543Z,85.44
2019-05-18T08:02:58.545Z,85.35
2019-05-18T08:03:58.549Z,84.54
2019-05-18T08:04:58.554Z,85.40
2019-05-18T08:05:58.557Z,85.27
2019-05-18T08:06:58.564Z,85.60
2019-05-18T08:07:58.564Z,85.65
2019-05-18T08:08:58.568Z,86.08
2019-05-18T08:09:58.571Z,85.88
2019-05-18T08:10:58.575Z,86.12
2019-05-18T08:11:58.579Z,85.54
2019-05-18T08:12:58.583Z,85.35
2019-05-18T08:13:58.587Z,85.11
2019-05-18T08:14:58.593Z,84.77
2019-05-18T08:15:58.601Z,85.49
2019-05-18T08:16:58.600Z,85.72
2019-05-18T08:17:58.606Z,85.09
2019-05-18T08:18:58.609Z,84.70
2019-05-18T08:19:58.614Z,83.30
2019-05-18T08:20:58.628Z,82.87
2019-05-18T08:21:58.627Z,82.74
2019-05-18T08:22:58.626Z,83.31
2019-05-18T08:23:58.634Z,83.28
2019-05-18T08:24:58.638Z,83.84
2019-05-18T08:25:58.644Z,83.74
2019-05-18T08:27:01.834Z,82.76
2019-05-18T08:27:58.653Z,81.85
2019-05-18T08:28:58.662Z,81.66
2019-05-18T08:29:58.667Z,82.72
2019-05-18T08:30:58.673Z,81.27
2019-05-18T08:31:58.676Z,81.80
2019-05-18T08:32:58.681Z,79.72
2019-05-18T08:33:58.687Z,79.58
2019-05-18T08:34:58.692Z,79.58
2019-05-18T08:35:58.703Z,79.19
2019-05-18T08:36:58.704Z,79.64
2019-05-18T08:37:58.710Z,80.89
2019-05-18T08:38:58.717Z,81.47
2019-05-18T08:39:58.728Z,81.95
2019-05-18T08:40:58.731Z,81.99
2019-05-18T08:41:58.736Z,81.22
2019-05-18T08:42:58.742Z,80.83
2019-05-18T08:43:58.761Z,79.56
2019-05-18T08:44:58.759Z,76.80
2019-05-18T08:45:58.764Z,75.29
2019-05-18T08:46:58.771Z,74.77
2019-05-18T08:47:58.780Z,75.78
2019-05-18T08:48:58.787Z,73.80
2019-05-18T08:49:58.793Z,74.13
2019-05-18T08:50:58.802Z,72.68
2019-05-18T08:52:07.763Z,71.48
2019-05-18T08:52:58.819Z,71.04
2019-05-18T08:53:58.836Z,70.62
2019-05-18T08:54:58.835Z,71.64
2019-05-18T08:56:58.854Z,73.25
2019-05-18T08:57:58.865Z,74.21
2019-05-18T08:58:58.870Z,74.37
2019-05-18T09:00:58.889Z,77.83
2019-05-18T09:01:58.899Z,80.14
2019-05-18T09:02:58.906Z,80.23
2019-05-18T09:03:58.917Z,80.66
2019-05-18T09:04:58.953Z,80.46
2019-05-18T09:05:58.931Z,78.77
2019-05-18T09:06:58.936Z,76.93
2019-05-18T09:07:58.944Z,76.10
2019-05-18T09:08:58.953Z,74.08
2019-05-18T09:09:58.960Z,73.31
2019-05-18T09:10:58.972Z,74.89
2019-05-18T09:11:58.977Z,75.09
2019-05-18T09:12:58.984Z,75.72
2019-05-18T09:13:58.989Z,74.79
2019-05-18T09:14:58.999Z,74.16
2019-05-18T09:15:59.006Z,72.19
2019-05-18T09:16:59.012Z,72.71
2019-05-18T09:17:59.028Z,71.78
2019-05-18T09:18:59.030Z,71.68
2019-05-18T09:19:59.039Z,70.48
2019-05-18T09:20:59.046Z,69.71
2019-05-18T09:21:59.051Z,68.49
2019-05-18T09:22:59.058Z,67.88
2019-05-18T09:23:59.069Z,68.65
2019-05-18T09:24:59.075Z,68.40
2019-05-18T09:25:59.085Z,67.85
2019-05-18T09:26:59.103Z,66.59
2019-05-18T09:27:59.104Z,66.78
2019-05-18T09:28:59.110Z,66.43
2019-05-18T09:29:59.118Z,66.14
2019-05-18T09:30:59.124Z,65.37
2019-05-18T09:31:59.136Z,64.76
2019-05-18T09:32:59.143Z,64.79
2019-05-18T09:33:59.153Z,63.98
2019-05-18T09:34:59.167Z,62.43
2019-05-18T09:35:59.169Z,61.27
2019-05-18T09:36:59.178Z,62.14
2019-05-18T09:37:59.189Z,61.72
2019-05-18T09:38:59.200Z,61.46
2019-05-18T09:39:59.203Z,61.36
2019-05-18T09:40:59.213Z,62.14
2019-05-18T09:41:59.221Z,61.33
2019-05-18T09:42:59.230Z,59.20
2019-05-18T09:43:59.239Z,59.00
2019-05-18T09:44:59.250Z,57.36
2019-05-18T09:45:59.258Z,57.55
2019-05-18T09:46:59.268Z,57.00
2019-05-18T09:47:59.278Z,54.86
2019-05-18T09:48:59.288Z,54.14
2019-05-18T09:49:59.297Z,53.24
2019-05-18T09:50:59.307Z,55.20
2019-05-18T09:51:59.318Z,57.82
2019-05-18T09:52:59.329Z,59.63
2019-05-18T09:53:59.337Z,61.83
2019-05-18T09:54:59.349Z,62.50
2019-05-18T09:55:59.359Z,63.76
2019-05-18T09:56:59.369Z,62.44
2019-05-18T09:57:59.377Z,62.44
2019-05-18T09:58:59.389Z,61.95
2019-05-18T09:59:59.399Z,61.86
2019-05-18T10:00:59.408Z,62.01
2019-05-18T10:01:59.419Z,61.72
2019-05-18T10:02:59.429Z,60.57
2019-05-18T10:03:59.438Z,60.37
2019-05-18T10:04:59.493Z,59.98
2019-05-18T10:05:59.457Z,61.40
2019-05-18T10:06:59.468Z,62.89
2019-05-18T10:07:59.476Z,64.14
2019-05-18T10:08:59.486Z,63.40
2019-05-18T10:09:59.497Z,63.43
2019-05-18T10:10:59.503Z,62.92
2019-05-18T10:11:59.517Z,63.02
2019-05-18T10:12:59.523Z,61.95
2019-05-18T10:13:59.557Z,61.83
2019-05-18T10:14:59.542Z,62.50
2019-05-18T10:15:59.550Z,62.79
2019-05-18T10:16:59.563Z,61.76
2019-05-18T10:17:59.582Z,60.11
2019-05-18T10:18:59.577Z,61.34
2019-05-18T10:19:59.588Z,61.08
2019-05-18T10:20:59.593Z,60.79
2019-05-18T10:21:59.609Z,61.57
2019-05-18T10:23:12.248Z,61.27
2019-05-18T10:23:59.621Z,61.15
2019-05-18T10:24:59.632Z,61.86
2019-05-18T10:25:59.637Z,61.76
2019-05-18T10:26:59.644Z,61.30
2019-05-18T10:27:59.655Z,60.50
2019-05-18T10:28:59.664Z,58.04
2019-05-18T10:29:59.680Z,57.14
2019-05-18T10:30:59.681Z,58.01
2019-05-18T10:31:59.689Z,58.33
2019-05-18T10:32:59.698Z,56.15
2019-05-18T10:33:59.706Z,54.28
2019-05-18T10:34:59.716Z,54.48
2019-05-18T10:35:59.726Z,55.88
2019-05-18T10:36:59.735Z,56.94
2019-05-18T10:37:59.742Z,57.20
2019-05-18T10:38:59.754Z,57.40
2019-05-18T10:39:59.763Z,57.88
2019-05-18T10:40:59.776Z,57.91
2019-05-18T10:41:59.782Z,57.23
2019-05-18T10:42:59.791Z,56.00
2019-05-18T10:43:59.801Z,56.20
2019-05-18T10:44:59.809Z,54.96
2019-05-18T10:45:59.831Z,55.16
2019-05-18T10:46:59.828Z,54.86
2019-05-18T10:47:59.878Z,54.09
2019-05-18T10:48:59.851Z,54.16
2019-05-18T10:49:59.858Z,54.33
2019-05-18T10:50:59.868Z,54.26
2019-05-18T10:51:59.888Z,54.64
2019-05-18T10:52:59.890Z,51.86
2019-05-18T10:53:59.898Z,51.79
2019-05-18T10:54:59.910Z,51.72
2019-05-18T10:55:59.920Z,50.68
2019-05-18T10:56:59.930Z,50.53
2019-05-18T10:57:59.940Z,48.88
2019-05-18T10:58:59.951Z,48.90
2019-05-18T10:59:59.964Z,49.80
2019-05-18T11:00:59.972Z,48.95
2019-05-18T11:01:59.982Z,50.02
2019-05-18T11:02:59.993Z,51.42
2019-05-18T11:04:00.003Z,53.04
2019-05-18T11:05:00.016Z,55.36
2019-05-18T11:06:00.025Z,55.34
2019-05-18T11:07:00.036Z,55.34
2019-05-18T11:08:00.047Z,55.27
2019-05-18T11:09:00.059Z,55.00
2019-05-18T11:10:00.067Z,55.36
2019-05-18T11:11:00.077Z,53.53
2019-05-18T11:12:00.094Z,52.20
2019-05-18T11:13:00.099Z,52.39
2019-05-18T11:14:00.109Z,53.43
2019-05-18T11:15:00.124Z,54.95
2019-05-18T11:16:00.128Z,56.11
2019-05-18T11:17:00.139Z,55.05
2019-05-18T11:18:00.148Z,53.59
2019-05-18T11:19:00.158Z,53.77
2019-05-18T11:20:00.172Z,54.13
2019-05-18T11:21:00.179Z,53.93
2019-05-18T11:22:00.185Z,54.73
2019-05-18T11:23:00.194Z,56.05
2019-05-18T11:24:00.204Z,56.47
2019-05-18T11:25:00.212Z,55.29
2019-05-18T11:26:00.222Z,55.51
2019-05-18T11:27:00.228Z,56.09
2019-05-18T11:28:00.237Z,55.60
2019-05-18T11:29:00.245Z,54.93
2019-05-18T11:30:00.256Z,56.28
2019-05-18T11:31:00.261Z,55.77
2019-05-18T11:32:00.270Z,55.77
2019-05-18T11:33:00.277Z,54.93
2019-05-18T11:34:00.284Z,55.31
2019-05-18T11:35:00.318Z,55.79
2019-05-18T11:36:00.304Z,56.15
2019-05-18T11:37:03.139Z,57.29
2019-05-18T11:38:00.314Z,56.63
2019-05-18T11:39:00.321Z,55.93
2019-05-18T11:40:00.329Z,55.74
2019-05-18T11:41:00.337Z,57.26
2019-05-18T11:42:00.342Z,57.38
2019-05-18T11:43:00.349Z,58.54
2019-05-18T11:44:00.358Z,58.37
2019-05-18T11:45:00.366Z,57.09
2019-05-18T11:46:00.369Z,56.22
2019-05-18T11:47:00.377Z,56.22
2019-05-18T11:48:00.383Z,55.57
2019-05-18T11:49:00.391Z,56.03
2019-05-18T11:50:00.399Z,55.81
2019-05-18T11:51:00.405Z,56.29
2019-05-18T11:52:00.409Z,55.26
2019-05-18T11:53:00.416Z,56.13
2019-05-18T11:54:00.421Z,56.03
2019-05-18T11:55:00.428Z,57.19
2019-05-18T11:56:00.448Z,57.21
2019-05-18T11:57:00.463Z,57.12
2019-05-18T11:58:00.448Z,56.25
2019-05-18T11:59:00.456Z,56.05
2019-05-18T12:00:00.461Z,55.87
2019-05-18T12:01:00.466Z,56.05
2019-05-18T12:02:00.472Z,56.05
2019-05-18T12:03:00.481Z,55.87
2019-05-18T12:04:00.489Z,56.09
2019-05-18T12:05:00.490Z,55.70
2019-05-18T12:06:00.494Z,55.79
2019-05-18T12:07:00.625Z,56.47
2019-05-18T12:08:00.509Z,57.05
2019-05-18T12:09:00.513Z,57.21
2019-05-18T12:10:00.521Z,57.31
2019-05-18T12:11:00.523Z,57.67
2019-05-18T12:12:00.536Z,58.54
2019-05-18T12:13:00.536Z,58.25
2019-05-18T12:14:00.541Z,58.35
2019-05-18T12:15:00.547Z,57.96
2019-05-18T12:16:00.555Z,57.67
2019-05-18T12:17:00.558Z,56.99
2019-05-18T12:18:00.598Z,56.99
2019-05-18T12:19:00.572Z,57.35
2019-05-18T12:20:00.576Z,57.54
2019-05-18T12:21:00.580Z,58.32
2019-05-18T12:22:00.586Z,58.90
2019-05-18T12:23:00.593Z,58.80
2019-05-18T12:24:14.143Z,59.38
2019-05-18T12:25:00.608Z,59.64
2019-05-18T12:26:00.623Z,58.87
2019-05-18T12:27:00.613Z,58.32
2019-05-18T12:28:00.621Z,57.93
2019-05-18T12:29:00.624Z,57.67
2019-05-18T12:30:00.628Z,57.19
2019-05-18T12:31:02.163Z,57.19
2019-05-18T12:32:00.638Z,57.57
2019-05-18T12:33:00.649Z,56.41
2019-05-18T12:34:00.658Z,56.03
2019-05-18T12:35:00.655Z,55.09
2019-05-18T12:36:00.658Z,54.61
2019-05-18T12:37:00.674Z,54.53
2019-05-18T12:38:00.672Z,55.67
2019-05-18T12:39:00.675Z,54.25
2019-05-18T12:40:00.687Z,54.08
2019-05-18T12:41:00.685Z,53.59
2019-05-18T12:42:00.689Z,54.27
2019-05-18T12:43:00.695Z,54.53
2019-05-18T12:44:00.699Z,54.80
2019-05-18T12:45:00.711Z,55.19
2019-05-18T12:46:00.713Z,56.09
2019-05-18T12:47:00.736Z,56.18
2019-05-18T12:48:00.723Z,56.11
2019-05-18T12:49:00.736Z,54.59
2019-05-18T12:50:00.732Z,53.23
2019-05-18T12:51:00.738Z,53.04
2019-05-18T12:52:00.743Z,53.04
2019-05-18T12:53:00.748Z,53.07
2019-05-18T12:54:00.764Z,52.29
2019-05-18T12:55:00.759Z,51.81
2019-05-18T12:56:00.763Z,51.72
2019-05-18T12:57:00.771Z,51.06
2019-05-18T12:58:00.776Z,51.13
2019-05-18T12:59:00.781Z,52.10
2019-05-18T13:00:00.787Z,52.12
2019-05-18T13:01:00.794Z,51.16
2019-05-18T13:02:00.800Z,51.32
2019-05-18T13:03:00.807Z,51.72
2019-05-18T13:04:00.814Z,52.71
2019-05-18T13:05:00.817Z,52.22
2019-05-18T13:06:00.823Z,51.04
2019-05-18T13:07:00.829Z,50.84
2019-05-18T13:08:00.837Z,50.94
2019-05-18T13:09:00.840Z,51.52
2019-05-18T13:10:00.864Z,51.88
2019-05-18T13:11:00.854Z,52.56
2019-05-18T13:12:00.863Z,51.30
2019-05-18T13:13:00.866Z,51.50
2019-05-18T13:14:00.872Z,51.66
2019-05-18T13:15:00.878Z,51.95
2019-05-18T13:16:00.883Z,51.68
2019-05-18T13:17:00.894Z,52.08
2019-05-18T13:18:00.896Z,52.75
2019-05-18T13:19:00.902Z,51.78
2019-05-18T13:20:00.909Z,51.40